createdAt,value
2019-02-04T00:00:35.752Z,56.97
2019-02-04T00:01:44.046Z,57.51
2019-02-04T00:02:50.346Z,58.95
2019-02-04T00:03:57.516Z,61.43
2019-02-04T00:05:04.476Z,64.60
2019-02-04T00:06:11.526Z,64.36
2019-02-04T00:07:18.528Z,62.09
2019-02-04T00:08:25.316Z,60.54
2019-02-04T00:09:32.378Z,58.36
2019-02-04T00:10:39.288Z,56.72
2019-02-04T00:11:45.926Z,55.48
2019-02-04T00:12:52.735Z,53.47
2019-02-04T00:14:00.233Z,51.42
2019-02-04T00:15:09.668Z,51.23
2019-02-04T00:16:16.237Z,51.36
2019-02-04T00:17:22.096Z,52.19
2019-02-04T00:18:28.238Z,52.99
2019-02-04T00:19:34.399Z,53.98
2019-02-04T00:20:40.268Z,54.66
2019-02-04T00:21:46.177Z,55.82
2019-02-04T00:22:52.319Z,56.39
2019-02-04T00:23:58.076Z,57.15
2019-02-04T00:25:04.457Z,58.37
2019-02-04T00:26:10.099Z,59.04
2019-02-04T00:27:16.001Z,61.36
2019-02-04T00:28:21.931Z,64.14
2019-02-04T00:29:28.949Z,63.81
2019-02-04T00:30:36.846Z,62.36
2019-02-04T00:31:43.666Z,59.52
2019-02-04T00:32:50.828Z,58.35
2019-02-04T00:33:58.173Z,57.16
2019-02-04T00:35:05.477Z,55.48
2019-02-04T00:36:12.634Z,53.13
2019-02-04T00:37:20.026Z,51.30
2019-02-04T00:38:26.290Z,50.82
2019-02-04T00:39:32.608Z,51.39
2019-02-04T00:40:39.060Z,52.05
2019-02-04T00:41:45.443Z,52.72
2019-02-04T00:42:53.799Z,53.50
2019-02-04T00:44:00.886Z,54.54
2019-02-04T00:45:09.290Z,55.37
2019-02-04T00:46:16.526Z,56.47
2019-02-04T00:47:22.688Z,57.12
2019-02-04T00:48:28.445Z,57.96
2019-02-04T00:49:34.485Z,59.00
2019-02-04T00:50:40.533Z,61.18
2019-02-04T00:51:46.585Z,63.39
2019-02-04T00:52:52.734Z,62.49
2019-02-04T00:53:58.985Z,61.77
2019-02-04T00:55:10.758Z,60.14
2019-02-04T00:56:17.301Z,58.41
2019-02-04T00:57:23.041Z,56.92
2019-02-04T00:58:29.084Z,55.24
2019-02-04T00:59:36.178Z,53.24
2019-02-04T01:00:42.127Z,51.20
2019-02-04T01:01:48.197Z,50.79
2019-02-04T01:02:54.219Z,51.21
2019-02-04T01:04:00.061Z,51.80
2019-02-04T01:05:07.236Z,52.64
2019-02-04T01:06:13.126Z,53.64
2019-02-04T01:07:19.826Z,54.65
2019-02-04T01:08:26.957Z,55.52
2019-02-04T01:09:33.261Z,56.60
2019-02-04T01:10:40.594Z,57.46
2019-02-04T01:11:47.431Z,58.08
2019-02-04T01:12:54.472Z,58.62
2019-02-04T01:14:02.998Z,61.12
2019-02-04T01:15:09.346Z,64.61
2019-02-04T01:16:16.823Z,63.80
2019-02-04T01:17:23.122Z,62.35
2019-02-04T01:18:28.927Z,60.15
2019-02-04T01:19:35.876Z,58.60
2019-02-04T01:20:41.854Z,56.68
2019-02-04T01:21:47.817Z,55.26
2019-02-04T01:22:54.446Z,53.06
2019-02-04T01:24:00.198Z,51.36
2019-02-04T01:25:08.534Z,51.17
2019-02-04T01:26:14.436Z,51.59
2019-02-04T01:27:20.284Z,52.22
2019-02-04T01:28:26.226Z,53.17
2019-02-04T01:29:32.295Z,54.10
2019-02-04T01:30:40.321Z,54.89
2019-02-04T01:31:48.282Z,55.87
2019-02-04T01:32:55.180Z,56.87
2019-02-04T01:34:02.613Z,57.88
2019-02-04T01:35:08.916Z,58.77
2019-02-04T01:36:15.668Z,61.05
2019-02-04T01:37:22.538Z,64.27
2019-02-04T01:38:30.766Z,63.11
2019-02-04T01:39:37.899Z,62.05
2019-02-04T01:40:46.376Z,60.00
2019-02-04T01:41:54.107Z,58.49
2019-02-04T01:43:01.634Z,57.26
2019-02-04T01:44:07.618Z,56.20
2019-02-04T01:45:13.773Z,55.03
2019-02-04T01:46:20.256Z,53.21
2019-02-04T01:47:26.243Z,51.94
2019-02-04T01:48:31.979Z,51.65
2019-02-04T01:49:37.832Z,51.95
2019-02-04T01:50:44.614Z,52.52
2019-02-04T01:51:50.318Z,53.32
2019-02-04T01:52:56.074Z,54.31
2019-02-04T01:54:02.707Z,55.27
2019-02-04T01:55:12.617Z,56.42
2019-02-04T01:56:18.534Z,57.11
2019-02-04T01:57:24.140Z,58.08
2019-02-04T01:58:31.248Z,58.96
2019-02-04T01:59:37.854Z,61.14
2019-02-04T02:00:44.344Z,64.19
2019-02-04T02:01:51.334Z,63.40
2019-02-04T02:02:58.070Z,62.26
2019-02-04T02:04:04.884Z,59.57
2019-02-04T02:05:12.230Z,57.64
2019-02-04T02:06:19.339Z,57.14
2019-02-04T02:07:26.761Z,55.51
2019-02-04T02:08:33.267Z,54.82
2019-02-04T02:09:39.915Z,53.38
2019-02-04T02:10:46.874Z,51.57
2019-02-04T02:11:53.949Z,51.83
2019-02-04T02:13:01.400Z,51.99
2019-02-04T02:14:08.335Z,52.61
2019-02-04T02:15:15.542Z,53.67
2019-02-04T02:16:22.305Z,54.29
2019-02-04T02:17:27.970Z,55.30
2019-02-04T02:18:34.127Z,56.13
2019-02-04T02:19:40.524Z,56.80
2019-02-04T02:20:46.359Z,57.96
2019-02-04T02:21:52.676Z,59.07
2019-02-04T02:22:59.007Z,61.32
2019-02-04T02:24:04.791Z,64.86
2019-02-04T02:25:10.516Z,64.08
2019-02-04T02:26:16.743Z,61.04
2019-02-04T02:27:22.501Z,58.99
2019-02-04T02:28:28.441Z,57.90
2019-02-04T02:29:35.702Z,56.24
2019-02-04T02:30:43.024Z,55.11
2019-02-04T02:31:49.627Z,52.64
2019-02-04T02:32:56.991Z,51.14
2019-02-04T02:34:04.345Z,50.72
2019-02-04T02:35:10.986Z,51.31
2019-02-04T02:36:18.251Z,51.78
2019-02-04T02:37:25.943Z,52.52
2019-02-04T02:38:32.811Z,53.05
2019-02-04T02:39:39.956Z,53.60
2019-02-04T02:40:46.679Z,54.54
2019-02-04T02:41:53.831Z,55.58
2019-02-04T02:43:00.619Z,56.45
2019-02-04T02:44:09.809Z,57.40
2019-02-04T02:45:16.841Z,57.90
2019-02-04T02:46:24.840Z,58.33
2019-02-04T02:47:38.169Z,59.49
2019-02-04T02:48:38.769Z,62.25
2019-02-04T02:49:44.839Z,65.08
2019-02-04T02:50:51.750Z,63.91
2019-02-04T02:51:57.909Z,61.47
2019-02-04T02:53:04.049Z,60.01
2019-02-04T02:54:09.798Z,58.07
2019-02-04T02:55:19.844Z,56.62
2019-02-04T02:56:25.808Z,55.33
2019-02-04T02:57:31.712Z,53.03
2019-02-04T02:58:38.169Z,51.32
2019-02-04T02:59:45.570Z,50.95
2019-02-04T03:00:52.147Z,51.15
2019-02-04T03:01:58.714Z,52.02
2019-02-04T03:03:06.009Z,53.03
2019-02-04T03:04:13.483Z,53.46
2019-02-04T03:05:20.633Z,54.34
2019-02-04T03:06:27.704Z,55.22
2019-02-04T03:07:34.629Z,56.24
2019-02-04T03:08:40.942Z,56.89
2019-02-04T03:09:48.563Z,57.80
2019-02-04T03:10:55.266Z,58.28
2019-02-04T03:12:02.529Z,59.39
2019-02-04T03:13:10.846Z,61.94
2019-02-04T03:14:17.449Z,64.97
2019-02-04T03:15:24.146Z,64.44
2019-02-04T03:16:31.150Z,61.35
2019-02-04T03:17:37.077Z,60.12
2019-02-04T03:18:43.843Z,58.43
2019-02-04T03:19:49.491Z,57.55
2019-02-04T03:20:55.445Z,55.65
2019-02-04T03:22:01.161Z,55.16
2019-02-04T03:23:06.796Z,53.08
2019-02-04T03:24:13.250Z,51.18
2019-02-04T03:25:19.313Z,50.76
2019-02-04T03:26:25.048Z,51.12
2019-02-04T03:27:30.926Z,51.87
2019-02-04T03:28:38.117Z,52.18
2019-02-04T03:29:45.138Z,53.23
2019-02-04T03:30:52.226Z,54.22
2019-02-04T03:31:59.407Z,55.55
2019-02-04T03:33:07.157Z,56.62
2019-02-04T03:34:13.715Z,57.25
2019-02-04T03:35:21.109Z,58.34
2019-02-04T03:36:29.265Z,59.23
2019-02-04T03:37:36.477Z,61.73
2019-02-04T03:38:43.834Z,65.85
2019-02-04T03:39:50.294Z,64.94
2019-02-04T03:40:58.389Z,62.92
2019-02-04T03:42:06.197Z,60.79
2019-02-04T03:43:13.410Z,59.68
2019-02-04T03:44:20.659Z,58.01
2019-02-04T03:45:27.431Z,56.45
2019-02-04T03:46:34.260Z,55.75
2019-02-04T03:47:40.107Z,54.71
2019-02-04T03:48:45.874Z,53.64
2019-02-04T03:49:51.804Z,51.83
2019-02-04T03:50:57.973Z,51.72
2019-02-04T03:52:03.911Z,52.32
2019-02-04T03:53:09.655Z,53.01
2019-02-04T03:54:15.401Z,53.89
2019-02-04T03:55:21.342Z,54.69
2019-02-04T03:56:27.694Z,55.45
2019-02-04T03:57:33.614Z,56.37
2019-02-04T03:58:40.424Z,57.28
2019-02-04T03:59:47.897Z,58.26
2019-02-04T04:00:54.458Z,58.72
2019-02-04T04:02:01.174Z,61.36
2019-02-04T04:03:07.911Z,65.01
2019-02-04T04:04:14.398Z,64.23
2019-02-04T04:05:22.802Z,63.02
2019-02-04T04:06:30.412Z,61.22
2019-02-04T04:07:37.498Z,59.02
2019-02-04T04:08:44.564Z,57.62
2019-02-04T04:09:51.736Z,56.24
2019-02-04T04:10:58.422Z,54.54
2019-02-04T04:12:05.278Z,52.49
2019-02-04T04:13:12.256Z,50.97
2019-02-04T04:14:18.835Z,50.72
2019-02-04T04:15:25.894Z,50.79
2019-02-04T04:16:33.188Z,51.13
2019-02-04T04:17:39.702Z,51.80
2019-02-04T04:18:45.456Z,52.36
2019-02-04T04:19:52.249Z,53.80
2019-02-04T04:21:00.079Z,54.29
2019-02-04T04:22:06.559Z,55.44
2019-02-04T04:23:12.328Z,55.98
2019-02-04T04:24:18.306Z,56.85
2019-02-04T04:25:23.971Z,58.00
2019-02-04T04:26:30.057Z,58.81
2019-02-04T04:27:36.816Z,61.22
2019-02-04T04:28:43.509Z,64.24
2019-02-04T04:29:49.625Z,64.41
2019-02-04T04:30:56.448Z,63.32
2019-02-04T04:32:03.911Z,61.05
2019-02-04T04:33:10.350Z,59.01
2019-02-04T04:34:17.390Z,57.81
2019-02-04T04:35:25.037Z,56.44
2019-02-04T04:36:31.389Z,55.27
2019-02-04T04:37:37.793Z,53.50
2019-02-04T04:38:45.303Z,51.64
2019-02-04T04:39:52.510Z,51.28
2019-02-04T04:41:00.493Z,51.83
2019-02-04T04:42:08.240Z,52.19
2019-02-04T04:43:14.396Z,53.62
2019-02-04T04:44:22.915Z,54.53
2019-02-04T04:45:30.436Z,55.27
2019-02-04T04:46:37.234Z,56.59
2019-02-04T04:47:43.502Z,57.20
2019-02-04T04:48:49.244Z,57.90
2019-02-04T04:49:55.481Z,58.61
2019-02-04T04:51:02.321Z,59.86
2019-02-04T04:52:09.212Z,62.76
2019-02-04T04:53:15.178Z,65.69
2019-02-04T04:54:20.894Z,63.51
2019-02-04T04:55:27.994Z,62.90
2019-02-04T04:56:33.711Z,61.40
2019-02-04T04:57:40.164Z,59.37
2019-02-04T04:58:46.402Z,58.20
2019-02-04T04:59:53.604Z,57.87
2019-02-04T05:01:00.081Z,56.21
2019-02-04T05:02:06.361Z,55.67
2019-02-04T05:03:13.261Z,54.74
2019-02-04T05:04:20.381Z,52.83
2019-02-04T05:05:26.521Z,51.26
2019-02-04T05:06:34.485Z,51.14
2019-02-04T05:07:41.186Z,51.45
2019-02-04T05:08:48.227Z,52.36
2019-02-04T05:09:55.861Z,52.89
2019-02-04T05:11:02.291Z,53.64
2019-02-04T05:12:09.221Z,54.90
2019-02-04T05:13:15.502Z,56.03
2019-02-04T05:14:22.899Z,57.89
2019-02-04T05:15:30.503Z,58.22
2019-02-04T05:16:38.129Z,59.00
2019-02-04T05:17:43.784Z,61.74
2019-02-04T05:18:49.521Z,65.15
2019-02-04T05:19:55.578Z,64.02
2019-02-04T05:21:01.692Z,63.16
2019-02-04T05:22:07.890Z,61.23
2019-02-04T05:23:14.231Z,59.99
2019-02-04T05:24:19.953Z,58.23
2019-02-04T05:25:26.022Z,56.48
2019-02-04T05:26:32.604Z,55.92
2019-02-04T05:27:38.832Z,55.21
2019-02-04T05:28:45.622Z,52.96
2019-02-04T05:29:51.669Z,51.05
2019-02-04T05:30:58.532Z,50.47
2019-02-04T05:32:05.542Z,50.57
2019-02-04T05:33:12.369Z,51.51
2019-02-04T05:34:19.247Z,51.86
2019-02-04T05:35:26.045Z,52.54
2019-02-04T05:36:32.917Z,53.95
2019-02-04T05:37:39.313Z,54.87
2019-02-04T05:38:45.774Z,55.82
2019-02-04T05:39:52.337Z,56.33
2019-02-04T05:41:00.000Z,57.17
2019-02-04T05:42:06.824Z,58.34
2019-02-04T05:43:13.744Z,59.75
2019-02-04T05:44:20.683Z,63.03
2019-02-04T05:45:26.847Z,64.02
2019-02-04T05:46:33.717Z,62.14
2019-02-04T05:47:39.572Z,59.49
2019-02-04T05:48:49.355Z,58.22
2019-02-04T05:49:53.219Z,57.08
2019-02-04T05:50:59.272Z,55.69
2019-02-04T05:52:05.228Z,53.50
2019-02-04T05:53:11.039Z,51.95
2019-02-04T05:54:17.216Z,51.59
2019-02-04T05:55:23.567Z,51.58
2019-02-04T05:56:29.488Z,52.39
2019-02-04T05:57:35.540Z,53.14
2019-02-04T05:58:41.672Z,53.79
2019-02-04T05:59:48.156Z,54.57
2019-02-04T06:00:55.727Z,55.56
2019-02-04T06:02:03.611Z,56.33
2019-02-04T06:03:10.993Z,57.43
2019-02-04T06:04:17.694Z,58.41
2019-02-04T06:05:26.532Z,59.26
2019-02-04T06:06:33.475Z,63.87
2019-02-04T06:07:40.090Z,63.89
2019-02-04T06:08:46.450Z,62.48
2019-02-04T06:09:53.599Z,61.29
2019-02-04T06:11:00.020Z,59.49
2019-02-04T06:12:07.454Z,57.85
2019-02-04T06:13:14.043Z,55.91
2019-02-04T06:14:21.525Z,55.11
2019-02-04T06:15:28.811Z,52.71
2019-02-04T06:16:35.812Z,51.14
2019-02-04T06:17:41.777Z,50.53
2019-02-04T06:18:47.566Z,50.88
2019-02-04T06:19:54.342Z,51.45
2019-02-04T06:21:00.303Z,52.47
2019-02-04T06:22:06.016Z,52.92
2019-02-04T06:23:13.002Z,54.22
2019-02-04T06:24:18.934Z,54.80
2019-02-04T06:25:25.086Z,55.25
2019-02-04T06:26:30.863Z,56.28
2019-02-04T06:27:36.553Z,57.04
2019-02-04T06:28:42.375Z,57.61
2019-02-04T06:29:49.555Z,58.03
2019-02-04T06:30:55.833Z,59.15
2019-02-04T06:32:02.962Z,62.49
2019-02-04T06:33:10.793Z,63.30
2019-02-04T06:34:17.481Z,61.13
2019-02-04T06:35:27.938Z,60.02
2019-02-04T06:36:34.868Z,58.14
2019-02-04T06:37:41.425Z,56.69
2019-02-04T06:38:48.889Z,54.96
2019-02-04T06:39:56.043Z,52.47
2019-02-04T06:41:03.026Z,50.48
2019-02-04T06:42:10.593Z,50.10
2019-02-04T06:43:17.972Z,50.24
2019-02-04T06:44:24.406Z,50.80
2019-02-04T06:45:31.123Z,51.64
2019-02-04T06:46:37.535Z,52.30
2019-02-04T06:47:43.752Z,53.35
2019-02-04T06:48:50.182Z,54.39
2019-02-04T06:49:56.201Z,55.09
2019-02-04T06:51:02.955Z,55.92
2019-02-04T06:52:08.626Z,56.51
2019-02-04T06:53:15.332Z,57.93
2019-02-04T06:54:21.691Z,61.44
2019-02-04T06:55:33.776Z,63.67
2019-02-04T06:56:39.934Z,63.23
2019-02-04T06:57:45.982Z,60.85
2019-02-04T06:58:52.385Z,58.72
2019-02-04T06:59:58.065Z,55.88
2019-02-04T07:01:05.051Z,54.74
2019-02-04T07:02:11.858Z,51.93
2019-02-04T07:03:18.976Z,50.37
2019-02-04T07:04:25.718Z,49.64
2019-02-04T07:05:43.573Z,49.82
2019-02-04T07:06:41.093Z,50.29
2019-02-04T07:07:48.100Z,50.73
2019-02-04T07:08:54.306Z,51.71
2019-02-04T07:10:01.286Z,52.48
2019-02-04T07:11:08.043Z,53.42
2019-02-04T07:12:15.150Z,53.84
2019-02-04T07:13:22.345Z,54.49
2019-02-04T07:14:29.500Z,55.55
2019-02-04T07:15:36.158Z,56.18
2019-02-04T07:16:42.505Z,56.75
2019-02-04T07:17:48.392Z,57.38
2019-02-04T07:18:54.422Z,58.11
2019-02-04T07:20:00.653Z,62.32
2019-02-04T07:21:06.819Z,64.13
2019-02-04T07:22:12.765Z,62.93
2019-02-04T07:23:18.800Z,60.51
2019-02-04T07:24:25.050Z,57.35
2019-02-04T07:25:31.214Z,55.88
2019-02-04T07:26:37.143Z,53.37
2019-02-04T07:27:43.193Z,50.39
2019-02-04T07:28:48.941Z,49.22
2019-02-04T07:29:56.134Z,49.11
2019-02-04T07:31:02.581Z,49.33
2019-02-04T07:32:09.772Z,50.23
2019-02-04T07:33:17.649Z,50.71
2019-02-04T07:34:25.755Z,52.13
2019-02-04T07:35:32.596Z,52.23
2019-02-04T07:36:40.406Z,53.18
2019-02-04T07:37:46.989Z,54.37
2019-02-04T07:38:54.475Z,54.60
2019-02-04T07:40:00.685Z,55.75
2019-02-04T07:41:06.536Z,56.03
2019-02-04T07:42:12.481Z,56.62
2019-02-04T07:43:18.767Z,59.83
2019-02-04T07:44:24.878Z,60.82
2019-02-04T07:45:31.018Z,61.10
2019-02-04T07:46:37.076Z,59.67
2019-02-04T07:47:42.816Z,56.94
2019-02-04T07:48:49.778Z,54.88
2019-02-04T07:49:55.906Z,53.56
2019-02-04T07:51:03.566Z,50.86
2019-02-04T07:52:09.766Z,50.36
2019-02-04T07:53:17.356Z,50.39
2019-02-04T07:54:24.116Z,50.67
2019-02-04T07:55:31.465Z,51.10
2019-02-04T07:56:41.307Z,51.76
2019-02-04T07:57:48.766Z,52.20
2019-02-04T07:58:55.166Z,53.23
2019-02-04T08:00:02.329Z,53.54
2019-02-04T08:01:09.240Z,54.12
2019-02-04T08:02:16.045Z,54.93
2019-02-04T08:03:22.405Z,55.17
2019-02-04T08:04:30.314Z,56.07
2019-02-04T08:05:37.836Z,55.95
2019-02-04T08:06:46.234Z,56.86
2019-02-04T08:07:52.928Z,59.44
2019-02-04T08:08:59.390Z,59.20
2019-02-04T08:10:08.265Z,59.52
2019-02-04T08:11:14.887Z,57.47
2019-02-04T08:12:23.314Z,55.17
2019-02-04T08:13:29.983Z,52.10
2019-02-04T08:14:36.194Z,49.74
2019-02-04T08:15:43.063Z,49.08
2019-02-04T08:16:49.345Z,49.54
2019-02-04T08:17:56.991Z,49.65
2019-02-04T08:19:02.899Z,50.55
2019-02-04T08:20:10.628Z,50.99
2019-02-04T08:21:18.217Z,51.40
2019-02-04T08:22:24.307Z,52.38
2019-02-04T08:23:30.141Z,53.39
2019-02-04T08:24:36.417Z,54.10
2019-02-04T08:25:42.934Z,54.33
2019-02-04T08:26:48.823Z,54.83
2019-02-04T08:27:55.247Z,55.52
2019-02-04T08:29:01.720Z,57.44
2019-02-04T08:30:30.449Z,58.01
2019-02-04T08:31:37.618Z,56.52
2019-02-04T08:32:44.056Z,56.12
2019-02-04T08:33:50.681Z,55.80
2019-02-04T08:34:57.483Z,56.47
2019-02-04T08:36:05.334Z,58.71
2019-02-04T08:37:11.480Z,58.70
2019-02-04T08:38:20.381Z,59.82
2019-02-04T08:39:27.107Z,58.90
2019-02-04T08:40:34.002Z,56.54
2019-02-04T08:41:40.832Z,54.08
2019-02-04T08:42:47.237Z,51.47
2019-02-04T08:43:55.106Z,48.76
2019-02-04T08:45:02.685Z,48.46
2019-02-04T08:46:10.076Z,48.55
2019-02-04T08:47:22.715Z,48.78
2019-02-04T08:48:23.838Z,49.38
2019-02-04T08:49:29.837Z,50.11
2019-02-04T08:50:35.820Z,50.73
2019-02-04T08:51:41.581Z,51.47
2019-02-04T08:52:47.901Z,52.24
2019-02-04T08:53:53.808Z,52.49
2019-02-04T08:55:00.015Z,52.69
2019-02-04T08:56:06.006Z,53.02
2019-02-04T08:57:11.988Z,53.77
2019-02-04T08:58:18.109Z,54.24
2019-02-04T08:59:24.128Z,54.85
2019-02-04T09:00:30.811Z,55.06
2019-02-04T09:01:37.129Z,55.58
2019-02-04T09:02:44.333Z,56.00
2019-02-04T09:03:51.714Z,57.61
2019-02-04T09:04:58.374Z,56.42
2019-02-04T09:06:05.118Z,56.21
2019-02-04T09:07:12.263Z,56.01
2019-02-04T09:08:18.560Z,56.34
2019-02-04T09:09:25.217Z,56.67
2019-02-04T09:10:33.566Z,58.93
2019-02-04T09:11:39.667Z,58.00
2019-02-04T09:12:46.025Z,57.35
2019-02-04T09:13:53.055Z,57.15
2019-02-04T09:14:59.764Z,57.07
2019-02-04T09:16:06.206Z,57.47
2019-02-04T09:17:12.367Z,57.71
2019-02-04T09:18:18.213Z,57.25
2019-02-04T09:19:24.185Z,59.75
2019-02-04T09:20:29.906Z,61.72
2019-02-04T09:21:35.948Z,61.02
2019-02-04T09:22:41.903Z,59.03
2019-02-04T09:23:49.394Z,56.46
2019-02-04T09:24:55.217Z,54.92
2019-02-04T09:26:01.066Z,51.90
2019-02-04T09:27:07.106Z,49.18
2019-02-04T09:28:14.674Z,48.64
2019-02-04T09:29:21.726Z,48.23
2019-02-04T09:30:30.537Z,48.99
2019-02-04T09:31:36.627Z,49.31
2019-02-04T09:32:43.574Z,49.19
2019-02-04T09:33:50.337Z,49.48
2019-02-04T09:34:56.793Z,49.86
2019-02-04T09:36:04.137Z,50.28
2019-02-04T09:37:10.229Z,50.66
2019-02-04T09:38:16.804Z,51.45
2019-02-04T09:39:24.076Z,52.23
2019-02-04T09:40:39.754Z,53.14
2019-02-04T09:41:45.625Z,53.46
2019-02-04T09:42:53.139Z,53.80
2019-02-04T09:43:59.134Z,54.28
2019-02-04T09:45:07.663Z,58.04
2019-02-04T09:46:13.487Z,56.20
2019-02-04T09:47:19.324Z,55.38
2019-02-04T09:48:26.193Z,54.96
2019-02-04T09:49:31.933Z,54.90
2019-02-04T09:50:43.025Z,55.33
2019-02-04T09:51:51.007Z,55.87
2019-02-04T09:53:01.213Z,58.14
2019-02-04T09:54:07.783Z,57.44
2019-02-04T09:55:20.943Z,56.56
2019-02-04T09:56:27.255Z,56.16
2019-02-04T09:57:36.076Z,56.76
2019-02-04T09:58:44.304Z,56.97
2019-02-04T09:59:51.397Z,56.83
2019-02-04T10:00:57.603Z,56.92
2019-02-04T10:02:04.354Z,57.02
2019-02-04T10:03:11.429Z,57.79
2019-02-04T10:04:17.843Z,57.38
2019-02-04T10:05:23.727Z,57.00
2019-02-04T10:06:30.804Z,56.90
2019-02-04T10:07:39.454Z,57.19
2019-02-04T10:08:52.844Z,58.18
2019-02-04T10:10:05.563Z,59.02
2019-02-04T10:11:20.047Z,62.04
2019-02-04T10:12:26.703Z,62.53
2019-02-04T10:13:37.416Z,59.30
2019-02-04T10:14:43.777Z,55.58
2019-02-04T10:15:55.460Z,52.21
2019-02-04T10:17:17.843Z,49.69
2019-02-04T10:18:31.277Z,48.47
2019-02-04T10:19:49.950Z,48.39
2019-02-04T10:20:51.223Z,48.30
2019-02-04T10:21:57.586Z,49.04
2019-02-04T10:23:13.153Z,49.30
2019-02-04T10:24:29.877Z,49.63
2019-02-04T10:25:52.464Z,50.71
2019-02-04T10:27:07.683Z,50.20
2019-02-04T10:28:15.850Z,51.29
2019-02-04T10:29:21.577Z,51.82
2019-02-04T10:30:29.823Z,51.72
2019-02-04T10:31:35.686Z,52.59
2019-02-04T10:32:44.294Z,53.03
2019-02-04T10:33:49.041Z,53.45
2019-02-04T10:34:55.027Z,53.14
2019-02-04T10:36:01.038Z,53.72
2019-02-04T10:37:07.154Z,53.71
2019-02-04T10:38:16.219Z,54.20
2019-02-04T10:39:20.983Z,54.80
2019-02-04T10:40:29.526Z,54.75
2019-02-04T10:41:35.239Z,55.05
2019-02-04T10:42:41.281Z,55.08
2019-02-04T10:43:47.129Z,55.41
2019-02-04T10:44:53.394Z,55.40
2019-02-04T10:45:59.227Z,54.85
2019-02-04T10:47:05.459Z,55.20
2019-02-04T10:48:11.245Z,55.88
2019-02-04T10:49:17.054Z,56.60
2019-02-04T10:50:45.653Z,57.00
2019-02-04T10:51:45.589Z,55.71
2019-02-04T10:52:51.488Z,55.81
2019-02-04T10:53:57.223Z,55.64
2019-02-04T10:55:03.002Z,55.78
2019-02-04T10:56:09.023Z,56.18
2019-02-04T10:57:14.865Z,56.77
2019-02-04T10:58:20.587Z,56.60
2019-02-04T10:59:26.652Z,55.85
2019-02-04T11:00:35.636Z,55.67
2019-02-04T11:01:41.600Z,55.93
2019-02-04T11:02:47.446Z,56.55
2019-02-04T11:03:53.184Z,56.60
2019-02-04T11:04:59.187Z,57.52
2019-02-04T11:06:04.883Z,57.49
2019-02-04T11:07:10.627Z,56.16
2019-02-04T11:08:16.486Z,55.32
2019-02-04T11:09:22.272Z,55.19
2019-02-04T11:10:33.863Z,56.59
2019-02-04T11:11:39.752Z,58.70
2019-02-04T11:12:46.251Z,58.89
2019-02-04T11:13:52.040Z,58.72
2019-02-04T11:14:57.883Z,57.77
2019-02-04T11:16:05.593Z,55.99
2019-02-04T11:17:11.839Z,52.46
2019-02-04T11:18:18.096Z,49.40
2019-02-04T11:19:23.819Z,48.66
2019-02-04T11:20:32.203Z,48.40
2019-02-04T11:21:37.851Z,49.34
2019-02-04T11:22:43.742Z,49.29
2019-02-04T11:23:49.643Z,49.63
2019-02-04T11:24:55.381Z,50.76
2019-02-04T11:26:02.682Z,50.72
2019-02-04T11:27:08.618Z,50.89
2019-02-04T11:28:14.736Z,50.98
2019-02-04T11:29:29.604Z,51.22
2019-02-04T11:30:55.415Z,51.89
2019-02-04T11:32:16.217Z,53.45
2019-02-04T11:33:34.792Z,55.08
2019-02-04T11:34:43.087Z,56.74
2019-02-04T11:35:49.617Z,55.27
2019-02-04T11:36:56.871Z,54.88
2019-02-04T11:38:12.334Z,55.75
2019-02-04T11:39:23.872Z,55.62
2019-02-04T11:40:40.255Z,56.09
2019-02-04T11:41:46.985Z,56.72
2019-02-04T11:42:54.735Z,57.60
2019-02-04T11:44:03.115Z,56.64
2019-02-04T11:45:11.043Z,55.54
2019-02-04T11:46:17.467Z,54.79
2019-02-04T11:47:31.247Z,55.32
2019-02-04T11:48:38.251Z,57.59
2019-02-04T11:49:44.074Z,59.22
2019-02-04T11:50:51.033Z,58.80
2019-02-04T11:51:56.984Z,56.63
2019-02-04T11:53:04.551Z,55.59
2019-02-04T11:54:12.064Z,52.86
2019-02-04T11:55:20.354Z,50.41
2019-02-04T11:56:26.449Z,49.59
2019-02-04T11:57:33.376Z,49.47
2019-02-04T11:58:40.904Z,49.26
2019-02-04T11:59:46.870Z,49.63
2019-02-04T12:00:53.884Z,50.54
2019-02-04T12:01:59.705Z,51.07
2019-02-04T12:03:08.478Z,51.39
2019-02-04T12:04:16.004Z,51.42
2019-02-04T12:05:24.245Z,52.52
2019-02-04T12:06:32.037Z,53.02
2019-02-04T12:07:38.217Z,53.60
2019-02-04T12:08:47.693Z,54.29
2019-02-04T12:09:56.144Z,54.47
2019-02-04T12:11:05.887Z,55.30
2019-02-04T12:12:12.186Z,54.88
2019-02-04T12:13:17.854Z,54.52
2019-02-04T12:14:24.684Z,57.59
2019-02-04T12:15:31.507Z,56.62
2019-02-04T12:16:38.517Z,55.37
2019-02-04T12:17:44.457Z,54.90
2019-02-04T12:18:50.303Z,54.68
2019-02-04T12:19:56.059Z,54.67
2019-02-04T12:21:03.231Z,55.55
2019-02-04T12:22:09.365Z,57.13
2019-02-04T12:23:15.927Z,55.86
2019-02-04T12:24:22.455Z,54.75
2019-02-04T12:25:31.207Z,55.25
2019-02-04T12:26:38.263Z,55.37
2019-02-04T12:27:45.443Z,58.65
2019-02-04T12:28:53.148Z,60.05
2019-02-04T12:30:00.146Z,59.71
2019-02-04T12:31:10.248Z,58.09
2019-02-04T12:32:19.339Z,56.32
2019-02-04T12:33:27.097Z,53.26
2019-02-04T12:34:33.310Z,50.58
2019-02-04T12:35:40.789Z,49.10
2019-02-04T12:36:48.668Z,48.51
2019-02-04T12:37:55.681Z,48.49
2019-02-04T12:39:02.211Z,49.49
2019-02-04T12:40:16.047Z,49.65
2019-02-04T12:41:22.913Z,49.44
2019-02-04T12:42:29.347Z,50.16
2019-02-04T12:43:36.614Z,50.83
2019-02-04T12:44:44.783Z,51.29
2019-02-04T12:45:51.784Z,51.88
2019-02-04T12:46:58.244Z,52.65
2019-02-04T12:48:05.667Z,52.83
2019-02-04T12:49:11.884Z,52.62
2019-02-04T12:50:19.998Z,53.32
2019-02-04T12:51:33.992Z,53.50
2019-02-04T12:52:39.964Z,53.93
2019-02-04T12:53:47.096Z,54.27
2019-02-04T12:54:54.557Z,54.85
2019-02-04T12:56:00.375Z,55.21
2019-02-04T12:57:09.285Z,55.82
2019-02-04T12:58:15.026Z,56.08
2019-02-04T12:59:28.227Z,56.22
2019-02-04T13:00:35.316Z,56.58
2019-02-04T13:01:42.984Z,56.78
2019-02-04T13:02:48.756Z,56.60
2019-02-04T13:03:54.484Z,56.82
2019-02-04T13:05:02.169Z,57.25
2019-02-04T13:06:08.852Z,57.48
2019-02-04T13:07:15.136Z,57.66
2019-02-04T13:08:21.645Z,57.94
2019-02-04T13:09:27.515Z,57.58
2019-02-04T13:10:33.330Z,57.75
2019-02-04T13:11:40.544Z,57.88
2019-02-04T13:12:47.338Z,57.82
2019-02-04T13:13:53.117Z,57.74
2019-02-04T13:15:00.897Z,57.95
2019-02-04T13:16:07.055Z,58.31
2019-02-04T13:17:12.907Z,57.85
2019-02-04T13:18:21.805Z,57.70
2019-02-04T13:19:29.111Z,57.73
2019-02-04T13:20:35.067Z,57.22
2019-02-04T13:21:45.432Z,57.67
2019-02-04T13:22:50.006Z,57.96
2019-02-04T13:23:59.437Z,58.33
2019-02-04T13:25:09.275Z,58.20
2019-02-04T13:26:15.315Z,57.98
2019-02-04T13:27:22.409Z,58.12
2019-02-04T13:28:28.657Z,59.31
2019-02-04T13:29:34.477Z,58.61
2019-02-04T13:30:41.044Z,58.93
2019-02-04T13:31:49.281Z,58.82
2019-02-04T13:32:55.600Z,58.80
2019-02-04T13:34:01.649Z,58.82
2019-02-04T13:35:09.893Z,59.09
2019-02-04T13:36:16.755Z,58.86
2019-02-04T13:37:23.404Z,59.58
2019-02-04T13:38:29.828Z,61.70
2019-02-04T13:39:42.706Z,64.41
2019-02-04T13:40:49.238Z,64.98
2019-02-04T13:41:57.725Z,62.57
2019-02-04T13:43:05.911Z,60.21
2019-02-04T13:44:12.179Z,58.02
2019-02-04T13:45:20.917Z,55.54
2019-02-04T13:46:27.714Z,53.09
2019-02-04T13:47:35.654Z,50.55
2019-02-04T13:48:42.295Z,49.57
2019-02-04T13:49:49.114Z,49.73
2019-02-04T13:50:55.221Z,49.68
2019-02-04T13:52:01.134Z,50.02
2019-02-04T13:53:08.962Z,50.51
2019-02-04T13:54:14.797Z,50.75
2019-02-04T13:55:33.544Z,51.05
2019-02-04T13:56:41.094Z,51.36
2019-02-04T13:57:47.270Z,52.02
2019-02-04T13:58:55.434Z,52.36
2019-02-04T14:00:02.955Z,53.00
2019-02-04T14:01:09.614Z,53.67
2019-02-04T14:02:16.874Z,54.24
2019-02-04T14:03:25.093Z,54.81
2019-02-04T14:04:37.193Z,55.20
2019-02-04T14:05:45.054Z,55.47
2019-02-04T14:06:56.946Z,56.10
2019-02-04T14:08:07.047Z,56.44
2019-02-04T14:09:17.465Z,56.87
2019-02-04T14:10:33.023Z,57.13
2019-02-04T14:11:40.974Z,57.48
2019-02-04T14:12:48.847Z,57.95
2019-02-04T14:13:55.125Z,58.37
2019-02-04T14:15:04.889Z,58.87
2019-02-04T14:16:14.095Z,60.35
2019-02-04T14:17:25.575Z,63.59
2019-02-04T14:18:31.787Z,63.68
2019-02-04T14:19:40.134Z,61.59
2019-02-04T14:20:46.054Z,59.22
2019-02-04T14:21:51.994Z,57.06
2019-02-04T14:22:59.506Z,55.21
2019-02-04T14:24:08.928Z,52.38
2019-02-04T14:25:15.006Z,49.62